sensor_id;sensor_type;location;lat;lon;timestamp;P1;durP1;ratioP1;P2;durP2;ratioP2
28653;SDS011;24320;56.980;24.336;2024-02-21T00:01:07;8.93;;;5.45;;
28653;SDS011;24320;56.980;24.336;2024-02-21T00:03:35;10.90;;;6.05;;
28653;SDS011;24320;56.980;24.336;2024-02-21T00:06:02;12.32;;;5.35;;
28653;SDS011;24320;56.980;24.336;2024-02-21T00:08:29;11.05;;;5.35;;
28653;SDS011;24320;56.980;24.336;2024-02-21T00:10:56;8.95;;;4.75;;
28653;SDS011;24320;56.980;24.336;2024-02-21T00:13:23;11.85;;;5.40;;
28653;SDS011;24320;56.980;24.336;2024-02-21T00:15:50;11.35;;;5.35;;
28653;SDS011;24320;56.980;24.336;2024-02-21T00:18:17;8.25;;;5.03;;
28653;SDS011;24320;56.980;24.336;2024-02-21T00:20:44;14.77;;;5.97;;
28653;SDS011;24320;56.980;24.336;2024-02-21T00:23:11;11.93;;;5.65;;
28653;SDS011;24320;56.980;24.336;2024-02-21T00:25:38;12.63;;;5.47;;
28653;SDS011;24320;56.980;24.336;2024-02-21T00:28:05;11.05;;;5.63;;
28653;SDS011;24320;56.980;24.336;2024-02-21T00:30:32;10.75;;;5.20;;
28653;SDS011;24320;56.980;24.336;2024-02-21T00:32:59;10.20;;;5.13;;
28653;SDS011;24320;56.980;24.336;2024-02-21T00:35:27;10.98;;;5.15;;
28653;SDS011;24320;56.980;24.336;2024-02-21T00:37:54;10.00;;;5.63;;
28653;SDS011;24320;56.980;24.336;2024-02-21T00:40:21;9.35;;;5.05;;
28653;SDS011;24320;56.980;24.336;2024-02-21T00:42:48;10.30;;;5.10;;
28653;SDS011;24320;56.980;24.336;2024-02-21T00:45:15;12.75;;;4.93;;
28653;SDS011;24320;56.980;24.336;2024-02-21T00:47:42;12.95;;;5.35;;
28653;SDS011;24320;56.980;24.336;2024-02-21T00:50:09;12.82;;;5.80;;
28653;SDS011;24320;56.980;24.336;2024-02-21T00:52:37;10.40;;;5.65;;
28653;SDS011;24320;56.980;24.336;2024-02-21T00:55:04;11.00;;;5.70;;
28653;SDS011;24320;56.980;24.336;2024-02-21T00:57:31;11.95;;;5.80;;
28653;SDS011;24320;56.980;24.336;2024-02-21T00:59:58;11.80;;;5.93;;
28653;SDS011;24320;56.980;24.336;2024-02-21T01:02:26;11.32;;;5.35;;
28653;SDS011;24320;56.980;24.336;2024-02-21T01:04:53;10.55;;;5.15;;
28653;SDS011;24320;56.980;24.336;2024-02-21T01:07:20;11.52;;;5.90;;
28653;SDS011;24320;56.980;24.336;2024-02-21T01:09:47;15.68;;;6.03;;
28653;SDS011;24320;56.980;24.336;2024-02-21T01:12:14;9.77;;;5.38;;
28653;SDS011;24320;56.980;24.336;2024-02-21T01:14:41;14.00;;;6.03;;
28653;SDS011;24320;56.980;24.336;2024-02-21T01:17:07;10.80;;;5.13;;
28653;SDS011;24320;56.980;24.336;2024-02-21T01:19:35;10.13;;;4.93;;
28653;SDS011;24320;56.980;24.336;2024-02-21T01:22:02;12.40;;;5.65;;
28653;SDS011;24320;56.980;24.336;2024-02-21T01:24:29;10.50;;;4.97;;
28653;SDS011;24320;56.980;24.336;2024-02-21T01:26:56;9.82;;;5.30;;
28653;SDS011;24320;56.980;24.336;2024-02-21T01:29:23;10.75;;;5.95;;
28653;SDS011;24320;56.980;24.336;2024-02-21T01:31:50;11.98;;;5.32;;
28653;SDS011;24320;56.980;24.336;2024-02-21T01:34:17;11.93;;;5.45;;
28653;SDS011;24320;56.980;24.336;2024-02-21T01:39:34;10.25;;;4.82;;
28653;SDS011;24320;56.980;24.336;2024-02-21T01:42:01;9.95;;;4.50;;
28653;SDS011;24320;56.980;24.336;2024-02-21T01:44:28;11.63;;;5.10;;
28653;SDS011;24320;56.980;24.336;2024-02-21T01:46:55;8.18;;;4.50;;
28653;SDS011;24320;56.980;24.336;2024-02-21T01:49:22;9.55;;;4.07;;
28653;SDS011;24320;56.980;24.336;2024-02-21T01:51:49;11.02;;;4.65;;
28653;SDS011;24320;56.980;24.336;2024-02-21T01:54:17;11.70;;;4.68;;
28653;SDS011;24320;56.980;24.336;2024-02-21T01:56:45;10.85;;;4.70;;
28653;SDS011;24320;56.980;24.336;2024-02-21T01:59:13;9.73;;;5.07;;
28653;SDS011;24320;56.980;24.336;2024-02-21T02:01:41;11.82;;;5.50;;
28653;SDS011;24320;56.980;24.336;2024-02-21T02:04:08;9.65;;;4.60;;
28653;SDS011;24320;56.980;24.336;2024-02-21T02:06:36;10.77;;;5.18;;
28653;SDS011;24320;56.980;24.336;2024-02-21T02:09:03;9.02;;;4.53;;
28653;SDS011;24320;56.980;24.336;2024-02-21T02:11:31;7.95;;;4.68;;
28653;SDS011;24320;56.980;24.336;2024-02-21T02:13:58;9.43;;;4.47;;
28653;SDS011;24320;56.980;24.336;2024-02-21T02:16:26;7.32;;;4.20;;
28653;SDS011;24320;56.980;24.336;2024-02-21T02:18:53;9.82;;;4.82;;
28653;SDS011;24320;56.980;24.336;2024-02-21T02:21:27;9.98;;;4.45;;
28653;SDS011;24320;56.980;24.336;2024-02-21T02:23:56;10.85;;;4.85;;
28653;SDS011;24320;56.980;24.336;2024-02-21T02:26:24;9.55;;;4.93;;
28653;SDS011;24320;56.980;24.336;2024-02-21T02:28:51;9.60;;;4.28;;
28653;SDS011;24320;56.980;24.336;2024-02-21T02:31:18;10.13;;;4.55;;
28653;SDS011;24320;56.980;24.336;2024-02-21T02:33:45;8.30;;;4.22;;
28653;SDS011;24320;56.980;24.336;2024-02-21T02:36:12;8.68;;;4.38;;
28653;SDS011;24320;56.980;24.336;2024-02-21T02:38:39;7.85;;;3.83;;
28653;SDS011;24320;56.980;24.336;2024-02-21T02:41:06;6.18;;;3.83;;
28653;SDS011;24320;56.980;24.336;2024-02-21T02:43:33;8.77;;;4.47;;
28653;SDS011;24320;56.980;24.336;2024-02-21T02:46:00;8.80;;;4.82;;
28653;SDS011;24320;56.980;24.336;2024-02-21T02:48:27;9.57;;;4.88;;
28653;SDS011;24320;56.980;24.336;2024-02-21T02:50:54;11.02;;;4.35;;
28653;SDS011;24320;56.980;24.336;2024-02-21T02:53:21;9.23;;;4.70;;
28653;SDS011;24320;56.980;24.336;2024-02-21T02:55:48;7.78;;;4.53;;
28653;SDS011;24320;56.980;24.336;2024-02-21T02:58:15;7.38;;;4.28;;
28653;SDS011;24320;56.980;24.336;2024-02-21T03:00:42;8.25;;;4.10;;
28653;SDS011;24320;56.980;24.336;2024-02-21T03:03:09;9.13;;;4.57;;
28653;SDS011;24320;56.980;24.336;2024-02-21T03:05:36;7.53;;;3.78;;
28653;SDS011;24320;56.980;24.336;2024-02-21T03:08:03;9.57;;;5.00;;
28653;SDS011;24320;56.980;24.336;2024-02-21T03:10:33;7.03;;;3.88;;
28653;SDS011;24320;56.980;24.336;2024-02-21T03:13:00;10.02;;;4.35;;
28653;SDS011;24320;56.980;24.336;2024-02-21T03:15:27;8.75;;;4.43;;
28653;SDS011;24320;56.980;24.336;2024-02-21T03:17:54;11.00;;;4.55;;
28653;SDS011;24320;56.980;24.336;2024-02-21T03:20:22;7.78;;;4.00;;
28653;SDS011;24320;56.980;24.336;2024-02-21T03:22:48;7.82;;;4.07;;
28653;SDS011;24320;56.980;24.336;2024-02-21T03:25:15;7.55;;;4.80;;
28653;SDS011;24320;56.980;24.336;2024-02-21T03:27:42;10.25;;;4.60;;
28653;SDS011;24320;56.980;24.336;2024-02-21T03:30:09;10.88;;;5.03;;
28653;SDS011;24320;56.980;24.336;2024-02-21T03:32:37;7.40;;;4.13;;
28653;SDS011;24320;56.980;24.336;2024-02-21T03:35:05;9.07;;;3.90;;
28653;SDS011;24320;56.980;24.336;2024-02-21T03:37:33;11.57;;;5.43;;
28653;SDS011;24320;56.980;24.336;2024-02-21T03:40:00;7.55;;;4.15;;
28653;SDS011;24320;56.980;24.336;2024-02-21T03:42:27;14.30;;;5.18;;
28653;SDS011;24320;56.980;24.336;2024-02-21T03:44:56;10.38;;;4.80;;
28653;SDS011;24320;56.980;24.336;2024-02-21T03:47:23;7.97;;;4.68;;
28653;SDS011;24320;56.980;24.336;2024-02-21T03:49:50;12.70;;;4.82;;
28653;SDS011;24320;56.980;24.336;2024-02-21T03:52:17;9.13;;;5.07;;
28653;SDS011;24320;56.980;24.336;2024-02-21T03:54:44;10.00;;;4.63;;
28653;SDS011;24320;56.980;24.336;2024-02-21T03:57:11;13.07;;;5.70;;
28653;SDS011;24320;56.980;24.336;2024-02-21T03:59:38;11.43;;;5.10;;
28653;SDS011;24320;56.980;24.336;2024-02-21T04:02:10;12.90;;;5.55;;
28653;SDS011;24320;56.980;24.336;2024-02-21T04:04:37;11.07;;;5.65;;
28653;SDS011;24320;56.980;24.336;2024-02-21T04:07:04;10.75;;;5.53;;
28653;SDS011;24320;56.980;24.336;2024-02-21T04:09:35;13.95;;;5.68;;
28653;SDS011;24320;56.980;24.336;2024-02-21T04:12:02;10.40;;;5.15;;
28653;SDS011;24320;56.980;24.336;2024-02-21T04:14:29;11.63;;;5.13;;
28653;SDS011;24320;56.980;24.336;2024-02-21T04:16:56;10.57;;;5.60;;
28653;SDS011;24320;56.980;24.336;2024-02-21T04:19:23;11.85;;;5.80;;
28653;SDS011;24320;56.980;24.336;2024-02-21T04:21:50;9.20;;;5.80;;
28653;SDS011;24320;56.980;24.336;2024-02-21T04:24:17;10.20;;;5.63;;
28653;SDS011;24320;56.980;24.336;2024-02-21T04:26:44;14.48;;;6.22;;
28653;SDS011;24320;56.980;24.336;2024-02-21T04:29:11;12.70;;;5.70;;
28653;SDS011;24320;56.980;24.336;2024-02-21T04:31:38;10.43;;;5.57;;
28653;SDS011;24320;56.980;24.336;2024-02-21T04:34:06;13.85;;;6.15;;
28653;SDS011;24320;56.980;24.336;2024-02-21T04:36:33;11.88;;;5.60;;
28653;SDS011;24320;56.980;24.336;2024-02-21T04:39:00;16.05;;;5.82;;
28653;SDS011;24320;56.980;24.336;2024-02-21T04:41:27;11.77;;;5.50;;
28653;SDS011;24320;56.980;24.336;2024-02-21T04:43:53;13.95;;;6.68;;
28653;SDS011;24320;56.980;24.336;2024-02-21T04:46:20;11.73;;;5.22;;
28653;SDS011;24320;56.980;24.336;2024-02-21T04:48:47;11.07;;;5.80;;
28653;SDS011;24320;56.980;24.336;2024-02-21T04:51:15;15.00;;;5.57;;
28653;SDS011;24320;56.980;24.336;2024-02-21T04:53:42;13.82;;;5.93;;
28653;SDS011;24320;56.980;24.336;2024-02-21T04:56:09;10.82;;;5.88;;
28653;SDS011;24320;56.980;24.336;2024-02-21T04:58:39;14.13;;;5.95;;
28653;SDS011;24320;56.980;24.336;2024-02-21T05:01:06;13.98;;;6.43;;
28653;SDS011;24320;56.980;24.336;2024-02-21T05:03:34;18.45;;;8.40;;
28653;SDS011;24320;56.980;24.336;2024-02-21T05:06:01;13.23;;;7.00;;
28653;SDS011;24320;56.980;24.336;2024-02-21T05:08:30;16.30;;;6.60;;
28653;SDS011;24320;56.980;24.336;2024-02-21T05:10:57;14.27;;;6.38;;
28653;SDS011;24320;56.980;24.336;2024-02-21T05:13:24;15.05;;;6.68;;
28653;SDS011;24320;56.980;24.336;2024-02-21T05:15:52;15.80;;;7.05;;
28653;SDS011;24320;56.980;24.336;2024-02-21T05:18:19;16.08;;;6.45;;
28653;SDS011;24320;56.980;24.336;2024-02-21T05:20:47;13.75;;;5.88;;
28653;SDS011;24320;56.980;24.336;2024-02-21T05:23:14;11.90;;;5.65;;
28653;SDS011;24320;56.980;24.336;2024-02-21T05:25:41;18.02;;;7.60;;
28653;SDS011;24320;56.980;24.336;2024-02-21T05:28:08;13.70;;;7.10;;
28653;SDS011;24320;56.980;24.336;2024-02-21T05:30:35;15.15;;;7.10;;
28653;SDS011;24320;56.980;24.336;2024-02-21T05:33:05;20.63;;;7.28;;
28653;SDS011;24320;56.980;24.336;2024-02-21T05:35:35;18.35;;;7.60;;
28653;SDS011;24320;56.980;24.336;2024-02-21T05:38:03;13.43;;;6.63;;
28653;SDS011;24320;56.980;24.336;2024-02-21T05:40:34;20.10;;;7.90;;
28653;SDS011;24320;56.980;24.336;2024-02-21T05:43:01;17.67;;;7.75;;
28653;SDS011;24320;56.980;24.336;2024-02-21T05:45:28;14.85;;;6.85;;
28653;SDS011;24320;56.980;24.336;2024-02-21T05:47:55;17.20;;;6.55;;
28653;SDS011;24320;56.980;24.336;2024-02-21T05:50:23;16.45;;;7.18;;
28653;SDS011;24320;56.980;24.336;2024-02-21T05:52:51;18.88;;;7.90;;
28653;SDS011;24320;56.980;24.336;2024-02-21T05:55:19;15.52;;;7.97;;
28653;SDS011;24320;56.980;24.336;2024-02-21T05:57:46;15.05;;;7.10;;
28653;SDS011;24320;56.980;24.336;2024-02-21T06:00:13;15.43;;;7.10;;
28653;SDS011;24320;56.980;24.336;2024-02-21T06:02:41;17.25;;;6.75;;
28653;SDS011;24320;56.980;24.336;2024-02-21T06:05:08;16.92;;;7.85;;
28653;SDS011;24320;56.980;24.336;2024-02-21T06:07:35;15.57;;;7.35;;
28653;SDS011;24320;56.980;24.336;2024-02-21T06:10:02;18.58;;;7.07;;
28653;SDS011;24320;56.980;24.336;2024-02-21T06:12:30;15.32;;;7.38;;
28653;SDS011;24320;56.980;24.336;2024-02-21T06:14:57;13.63;;;6.07;;
28653;SDS011;24320;56.980;24.336;2024-02-21T06:17:24;17.75;;;9.15;;
28653;SDS011;24320;56.980;24.336;2024-02-21T06:19:51;19.92;;;8.70;;
28653;SDS011;24320;56.980;24.336;2024-02-21T06:22:18;19.02;;;7.20;;
28653;SDS011;24320;56.980;24.336;2024-02-21T06:24:45;18.63;;;7.82;;
28653;SDS011;24320;56.980;24.336;2024-02-21T06:27:12;17.60;;;8.15;;
28653;SDS011;24320;56.980;24.336;2024-02-21T06:29:40;18.25;;;7.80;;
28653;SDS011;24320;56.980;24.336;2024-02-21T06:32:07;19.58;;;8.00;;
28653;SDS011;24320;56.980;24.336;2024-02-21T06:34:35;17.52;;;7.78;;
28653;SDS011;24320;56.980;24.336;2024-02-21T06:37:02;19.23;;;8.10;;
28653;SDS011;24320;56.980;24.336;2024-02-21T06:39:29;20.63;;;7.97;;
28653;SDS011;24320;56.980;24.336;2024-02-21T06:41:56;19.45;;;8.25;;
28653;SDS011;24320;56.980;24.336;2024-02-21T06:44:28;20.80;;;8.50;;
28653;SDS011;24320;56.980;24.336;2024-02-21T06:46:55;17.13;;;7.53;;
28653;SDS011;24320;56.980;24.336;2024-02-21T06:49:23;21.58;;;7.57;;
28653;SDS011;24320;56.980;24.336;2024-02-21T06:51:50;24.15;;;8.82;;
28653;SDS011;24320;56.980;24.336;2024-02-21T06:54:17;17.70;;;7.75;;
28653;SDS011;24320;56.980;24.336;2024-02-21T06:56:44;17.77;;;7.63;;
28653;SDS011;24320;56.980;24.336;2024-02-21T06:59:11;17.52;;;7.40;;
28653;SDS011;24320;56.980;24.336;2024-02-21T07:01:48;19.15;;;7.93;;
28653;SDS011;24320;56.980;24.336;2024-02-21T07:04:16;21.38;;;8.13;;
28653;SDS011;24320;56.980;24.336;2024-02-21T07:06:43;25.75;;;8.85;;
28653;SDS011;24320;56.980;24.336;2024-02-21T07:09:12;20.80;;;8.23;;
28653;SDS011;24320;56.980;24.336;2024-02-21T07:11:39;21.85;;;8.88;;
28653;SDS011;24320;56.980;24.336;2024-02-21T07:14:06;18.55;;;8.57;;
28653;SDS011;24320;56.980;24.336;2024-02-21T07:16:33;19.10;;;8.80;;
28653;SDS011;24320;56.980;24.336;2024-02-21T07:19:00;17.65;;;8.43;;
28653;SDS011;24320;56.980;24.336;2024-02-21T07:21:27;15.95;;;8.45;;
28653;SDS011;24320;56.980;24.336;2024-02-21T07:23:54;25.50;;;8.80;;
28653;SDS011;24320;56.980;24.336;2024-02-21T07:26:21;24.17;;;8.82;;
28653;SDS011;24320;56.980;24.336;2024-02-21T07:28:48;15.95;;;7.82;;
28653;SDS011;24320;56.980;24.336;2024-02-21T07:31:15;22.10;;;9.15;;
28653;SDS011;24320;56.980;24.336;2024-02-21T07:33:42;17.35;;;8.10;;
28653;SDS011;24320;56.980;24.336;2024-02-21T07:36:10;18.67;;;7.90;;
28653;SDS011;24320;56.980;24.336;2024-02-21T07:38:38;19.17;;;8.50;;
28653;SDS011;24320;56.980;24.336;2024-02-21T07:41:05;22.63;;;9.18;;
28653;SDS011;24320;56.980;24.336;2024-02-21T07:43:32;19.58;;;8.45;;
28653;SDS011;24320;56.980;24.336;2024-02-21T07:45:59;21.27;;;9.10;;
28653;SDS011;24320;56.980;24.336;2024-02-21T07:48:26;29.10;;;10.07;;
28653;SDS011;24320;56.980;24.336;2024-02-21T07:50:53;18.50;;;8.95;;
28653;SDS011;24320;56.980;24.336;2024-02-21T07:53:20;33.55;;;9.73;;
28653;SDS011;24320;56.980;24.336;2024-02-21T07:55:47;23.98;;;9.18;;
28653;SDS011;24320;56.980;24.336;2024-02-21T07:58:14;23.60;;;8.73;;
28653;SDS011;24320;56.980;24.336;2024-02-21T08:00:42;20.35;;;9.07;;
28653;SDS011;24320;56.980;24.336;2024-02-21T08:03:09;20.35;;;8.73;;
28653;SDS011;24320;56.980;24.336;2024-02-21T08:05:35;22.15;;;8.68;;
28653;SDS011;24320;56.980;24.336;2024-02-21T08:08:03;20.63;;;8.35;;
28653;SDS011;24320;56.980;24.336;2024-02-21T08:10:31;20.42;;;9.70;;
28653;SDS011;24320;56.980;24.336;2024-02-21T08:12:58;20.88;;;8.68;;
28653;SDS011;24320;56.980;24.336;2024-02-21T08:15:25;27.48;;;9.45;;
28653;SDS011;24320;56.980;24.336;2024-02-21T08:17:55;19.25;;;9.02;;
28653;SDS011;24320;56.980;24.336;2024-02-21T08:20:26;22.23;;;8.50;;
28653;SDS011;24320;56.980;24.336;2024-02-21T08:22:54;25.17;;;8.30;;
28653;SDS011;24320;56.980;24.336;2024-02-21T08:25:21;22.35;;;9.13;;
28653;SDS011;24320;56.980;24.336;2024-02-21T08:27:48;19.25;;;8.02;;
28653;SDS011;24320;56.980;24.336;2024-02-21T08:30:15;21.50;;;8.02;;
28653;SDS011;24320;56.980;24.336;2024-02-21T08:32:42;19.25;;;8.05;;
28653;SDS011;24320;56.980;24.336;2024-02-21T08:35:09;20.17;;;7.85;;
28653;SDS011;24320;56.980;24.336;2024-02-21T08:37:37;21.60;;;8.45;;
28653;SDS011;24320;56.980;24.336;2024-02-21T08:40:04;20.80;;;8.32;;
28653;SDS011;24320;56.980;24.336;2024-02-21T08:42:35;19.60;;;8.50;;
28653;SDS011;24320;56.980;24.336;2024-02-21T08:45:03;26.33;;;9.05;;
28653;SDS011;24320;56.980;24.336;2024-02-21T08:47:30;30.02;;;9.15;;
28653;SDS011;24320;56.980;24.336;2024-02-21T08:49:57;20.65;;;8.00;;
28653;SDS011;24320;56.980;24.336;2024-02-21T08:52:30;19.90;;;9.50;;
28653;SDS011;24320;56.980;24.336;2024-02-21T08:54:57;20.95;;;8.00;;
28653;SDS011;24320;56.980;24.336;2024-02-21T08:57:24;16.92;;;7.65;;
28653;SDS011;24320;56.980;24.336;2024-02-21T08:59:50;22.60;;;8.45;;
28653;SDS011;24320;56.980;24.336;2024-02-21T09:02:17;15.82;;;7.38;;
28653;SDS011;24320;56.980;24.336;2024-02-21T09:04:45;17.42;;;7.93;;
28653;SDS011;24320;56.980;24.336;2024-02-21T09:07:12;16.23;;;7.90;;
28653;SDS011;24320;56.980;24.336;2024-02-21T09:09:39;18.38;;;8.25;;
28653;SDS011;24320;56.980;24.336;2024-02-21T09:12:06;15.13;;;7.22;;
28653;SDS011;24320;56.980;24.336;2024-02-21T09:14:34;17.58;;;7.10;;
28653;SDS011;24320;56.980;24.336;2024-02-21T09:17:06;13.52;;;6.00;;
28653;SDS011;24320;56.980;24.336;2024-02-21T09:19:35;14.95;;;6.38;;
28653;SDS011;24320;56.980;24.336;2024-02-21T09:22:02;15.85;;;6.00;;
28653;SDS011;24320;56.980;24.336;2024-02-21T09:24:29;12.65;;;5.07;;
28653;SDS011;24320;56.980;24.336;2024-02-21T09:26:56;14.05;;;5.50;;
28653;SDS011;24320;56.980;24.336;2024-02-21T09:29:23;10.98;;;4.57;;
28653;SDS011;24320;56.980;24.336;2024-02-21T09:31:53;10.48;;;4.95;;
28653;SDS011;24320;56.980;24.336;2024-02-21T09:34:20;8.48;;;4.20;;
28653;SDS011;24320;56.980;24.336;2024-02-21T09:36:48;10.13;;;4.40;;
28653;SDS011;24320;56.980;24.336;2024-02-21T09:39:15;6.20;;;3.00;;
28653;SDS011;24320;56.980;24.336;2024-02-21T09:41:49;7.55;;;3.38;;
28653;SDS011;24320;56.980;24.336;2024-02-21T09:44:22;8.05;;;3.30;;
28653;SDS011;24320;56.980;24.336;2024-02-21T09:46:57;6.40;;;3.55;;
28653;SDS011;24320;56.980;24.336;2024-02-21T09:52:00;6.72;;;3.15;;
28653;SDS011;24320;56.980;24.336;2024-02-21T09:54:29;6.05;;;2.55;;
28653;SDS011;24320;56.980;24.336;2024-02-21T09:56:59;5.38;;;2.55;;
28653;SDS011;24320;56.980;24.336;2024-02-21T09:59:27;5.72;;;3.35;;
28653;SDS011;24320;56.980;24.336;2024-02-21T10:01:56;5.80;;;2.75;;
28653;SDS011;24320;56.980;24.336;2024-02-21T10:04:23;4.90;;;2.35;;
28653;SDS011;24320;56.980;24.336;2024-02-21T10:06:50;6.40;;;2.50;;
28653;SDS011;24320;56.980;24.336;2024-02-21T10:09:24;7.47;;;2.65;;
28653;SDS011;24320;56.980;24.336;2024-02-21T10:11:55;7.10;;;3.13;;
28653;SDS011;24320;56.980;24.336;2024-02-21T10:14:33;2.63;;;1.63;;
28653;SDS011;24320;56.980;24.336;2024-02-21T10:17:00;3.95;;;2.05;;
28653;SDS011;24320;56.980;24.336;2024-02-21T10:19:29;5.50;;;2.70;;
28653;SDS011;24320;56.980;24.336;2024-02-21T10:22:03;4.90;;;2.20;;
28653;SDS011;24320;56.980;24.336;2024-02-21T10:24:31;3.65;;;2.17;;
28653;SDS011;24320;56.980;24.336;2024-02-21T10:26:59;3.90;;;1.80;;
28653;SDS011;24320;56.980;24.336;2024-02-21T10:29:26;3.35;;;1.60;;
28653;SDS011;24320;56.980;24.336;2024-02-21T10:32:03;3.70;;;1.73;;
28653;SDS011;24320;56.980;24.336;2024-02-21T10:34:41;2.40;;;1.60;;
28653;SDS011;24320;56.980;24.336;2024-02-21T10:37:10;1.90;;;1.15;;
28653;SDS011;24320;56.980;24.336;2024-02-21T10:39:38;3.45;;;1.60;;
28653;SDS011;24320;56.980;24.336;2024-02-21T10:42:06;2.97;;;1.55;;
28653;SDS011;24320;56.980;24.336;2024-02-21T10:44:37;3.63;;;1.63;;
28653;SDS011;24320;56.980;24.336;2024-02-21T10:47:09;2.20;;;1.23;;
28653;SDS011;24320;56.980;24.336;2024-02-21T10:49:39;2.63;;;1.50;;
28653;SDS011;24320;56.980;24.336;2024-02-21T10:52:14;1.95;;;1.20;;
28653;SDS011;24320;56.980;24.336;2024-02-21T10:54:55;2.65;;;1.65;;
28653;SDS011;24320;56.980;24.336;2024-02-21T10:57:27;19.13;;;6.68;;
28653;SDS011;24320;56.980;24.336;2024-02-21T10:59:55;3.28;;;1.98;;
28653;SDS011;24320;56.980;24.336;2024-02-21T11:02:25;24.40;;;7.43;;
28653;SDS011;24320;56.980;24.336;2024-02-21T11:04:56;7.43;;;2.90;;
28653;SDS011;24320;56.980;24.336;2024-02-21T11:07:24;2.50;;;1.38;;
28653;SDS011;24320;56.980;24.336;2024-02-21T11:09:52;2.45;;;1.88;;
28653;SDS011;24320;56.980;24.336;2024-02-21T11:12:22;2.22;;;1.75;;
28653;SDS011;24320;56.980;24.336;2024-02-21T11:14:49;3.38;;;1.88;;
28653;SDS011;24320;56.980;24.336;2024-02-21T11:17:19;3.58;;;1.65;;
28653;SDS011;24320;56.980;24.336;2024-02-21T11:19:54;2.25;;;1.13;;
28653;SDS011;24320;56.980;24.336;2024-02-21T11:22:21;1.38;;;0.95;;
28653;SDS011;24320;56.980;24.336;2024-02-21T11:24:51;4.47;;;1.75;;
28653;SDS011;24320;56.980;24.336;2024-02-21T11:27:20;2.35;;;1.10;;
28653;SDS011;24320;56.980;24.336;2024-02-21T11:29:57;3.50;;;1.40;;
28653;SDS011;24320;56.980;24.336;2024-02-21T11:32:26;1.73;;;1.40;;
28653;SDS011;24320;56.980;24.336;2024-02-21T11:37:29;3.30;;;1.88;;
28653;SDS011;24320;56.980;24.336;2024-02-21T11:40:00;3.55;;;1.73;;
28653;SDS011;24320;56.980;24.336;2024-02-21T11:42:30;1.90;;;1.35;;
28653;SDS011;24320;56.980;24.336;2024-02-21T11:44:57;2.17;;;1.40;;
28653;SDS011;24320;56.980;24.336;2024-02-21T11:47:24;3.30;;;1.83;;
28653;SDS011;24320;56.980;24.336;2024-02-21T11:49:52;1.77;;;1.17;;
28653;SDS011;24320;56.980;24.336;2024-02-21T11:52:22;2.97;;;1.90;;
28653;SDS011;24320;56.980;24.336;2024-02-21T11:54:55;2.20;;;1.40;;
28653;SDS011;24320;56.980;24.336;2024-02-21T11:57:30;4.78;;;2.03;;
28653;SDS011;24320;56.980;24.336;2024-02-21T11:59:57;3.80;;;1.67;;
28653;SDS011;24320;56.980;24.336;2024-02-21T12:02:28;3.38;;;1.90;;
28653;SDS011;24320;56.980;24.336;2024-02-21T12:04:55;1.50;;;1.30;;
28653;SDS011;24320;56.980;24.336;2024-02-21T12:07:23;4.07;;;2.10;;
28653;SDS011;24320;56.980;24.336;2024-02-21T12:09:51;4.40;;;1.95;;
28653;SDS011;24320;56.980;24.336;2024-02-21T12:12:19;2.28;;;1.65;;
28653;SDS011;24320;56.980;24.336;2024-02-21T12:14:53;5.60;;;2.45;;
28653;SDS011;24320;56.980;24.336;2024-02-21T12:17:26;7.90;;;2.72;;
28653;SDS011;24320;56.980;24.336;2024-02-21T12:19:53;5.72;;;3.15;;
28653;SDS011;24320;56.980;24.336;2024-02-21T12:22:21;2.97;;;1.70;;
28653;SDS011;24320;56.980;24.336;2024-02-21T12:24:48;3.05;;;1.40;;
28653;SDS011;24320;56.980;24.336;2024-02-21T12:27:15;3.53;;;1.60;;
28653;SDS011;24320;56.980;24.336;2024-02-21T12:29:42;3.33;;;2.00;;
28653;SDS011;24320;56.980;24.336;2024-02-21T12:32:10;3.53;;;2.42;;
28653;SDS011;24320;56.980;24.336;2024-02-21T12:34:38;3.72;;;1.77;;
28653;SDS011;24320;56.980;24.336;2024-02-21T12:39:47;3.30;;;2.05;;
28653;SDS011;24320;56.980;24.336;2024-02-21T12:42:16;4.03;;;1.73;;
28653;SDS011;24320;56.980;24.336;2024-02-21T12:44:44;2.47;;;1.42;;
28653;SDS011;24320;56.980;24.336;2024-02-21T12:47:11;1.98;;;1.40;;
28653;SDS011;24320;56.980;24.336;2024-02-21T12:49:38;2.55;;;1.60;;
28653;SDS011;24320;56.980;24.336;2024-02-21T12:52:11;8.05;;;2.15;;
28653;SDS011;24320;56.980;24.336;2024-02-21T12:54:38;9.07;;;3.20;;
28653;SDS011;24320;56.980;24.336;2024-02-21T12:57:05;4.65;;;2.20;;
28653;SDS011;24320;56.980;24.336;2024-02-21T12:59:32;2.05;;;1.30;;
28653;SDS011;24320;56.980;24.336;2024-02-21T13:01:59;1.17;;;1.00;;
28653;SDS011;24320;56.980;24.336;2024-02-21T13:04:26;2.38;;;1.38;;
28653;SDS011;24320;56.980;24.336;2024-02-21T13:06:53;4.00;;;1.73;;
28653;SDS011;24320;56.980;24.336;2024-02-21T13:09:22;3.65;;;1.80;;
28653;SDS011;24320;56.980;24.336;2024-02-21T13:11:49;2.95;;;1.30;;
28653;SDS011;24320;56.980;24.336;2024-02-21T13:14:18;2.42;;;1.52;;
28653;SDS011;24320;56.980;24.336;2024-02-21T13:16:45;2.25;;;1.50;;
28653;SDS011;24320;56.980;24.336;2024-02-21T13:19:12;3.88;;;2.45;;
28653;SDS011;24320;56.980;24.336;2024-02-21T13:21:44;2.92;;;1.60;;
28653;SDS011;24320;56.980;24.336;2024-02-21T13:24:12;1.75;;;1.20;;
28653;SDS011;24320;56.980;24.336;2024-02-21T13:26:39;2.50;;;1.05;;
28653;SDS011;24320;56.980;24.336;2024-02-21T13:29:08;3.45;;;2.05;;
28653;SDS011;24320;56.980;24.336;2024-02-21T13:31:35;2.28;;;1.50;;
28653;SDS011;24320;56.980;24.336;2024-02-21T13:34:02;2.40;;;1.40;;
28653;SDS011;24320;56.980;24.336;2024-02-21T13:36:29;3.88;;;1.65;;
28653;SDS011;24320;56.980;24.336;2024-02-21T13:38:56;6.75;;;1.10;;
28653;SDS011;24320;56.980;24.336;2024-02-21T13:41:23;2.47;;;1.40;;
28653;SDS011;24320;56.980;24.336;2024-02-21T13:43:50;2.28;;;1.38;;
28653;SDS011;24320;56.980;24.336;2024-02-21T13:46:19;2.15;;;1.10;;
28653;SDS011;24320;56.980;24.336;2024-02-21T13:48:48;2.58;;;1.17;;
28653;SDS011;24320;56.980;24.336;2024-02-21T13:51:16;3.05;;;1.30;;
28653;SDS011;24320;56.980;24.336;2024-02-21T13:53:43;0.93;;;0.82;;
28653;SDS011;24320;56.980;24.336;2024-02-21T13:56:10;4.78;;;1.10;;
28653;SDS011;24320;56.980;24.336;2024-02-21T13:58:38;7.38;;;1.98;;
28653;SDS011;24320;56.980;24.336;2024-02-21T14:01:05;1.65;;;1.48;;
28653;SDS011;24320;56.980;24.336;2024-02-21T14:03:32;3.45;;;2.28;;
28653;SDS011;24320;56.980;24.336;2024-02-21T14:06:02;1.85;;;1.20;;
28653;SDS011;24320;56.980;24.336;2024-02-21T14:08:30;2.88;;;1.10;;
28653;SDS011;24320;56.980;24.336;2024-02-21T14:10:57;2.08;;;0.95;;
28653;SDS011;24320;56.980;24.336;2024-02-21T14:13:27;1.40;;;1.08;;
28653;SDS011;24320;56.980;24.336;2024-02-21T14:15:55;1.92;;;1.15;;
28653;SDS011;24320;56.980;24.336;2024-02-21T14:18:24;6.32;;;1.38;;
28653;SDS011;24320;56.980;24.336;2024-02-21T14:20:53;1.90;;;0.95;;
28653;SDS011;24320;56.980;24.336;2024-02-21T14:23:21;2.97;;;1.30;;
28653;SDS011;24320;56.980;24.336;2024-02-21T14:25:48;2.20;;;1.30;;
28653;SDS011;24320;56.980;24.336;2024-02-21T14:28:17;1.42;;;1.15;;
28653;SDS011;24320;56.980;24.336;2024-02-21T14:30:47;3.42;;;1.20;;
28653;SDS011;24320;56.980;24.336;2024-02-21T14:33:15;4.53;;;1.70;;
28653;SDS011;24320;56.980;24.336;2024-02-21T14:35:42;2.85;;;1.60;;
28653;SDS011;24320;56.980;24.336;2024-02-21T14:38:09;6.65;;;1.55;;
28653;SDS011;24320;56.980;24.336;2024-02-21T14:40:36;2.05;;;1.20;;
28653;SDS011;24320;56.980;24.336;2024-02-21T14:43:04;2.47;;;1.23;;